createdAt,value
2023-02-23T00:02:06.559Z,57.95
2023-02-23T00:04:35.070Z,49.47
2023-02-23T00:07:02.406Z,50.97
2023-02-23T00:09:35.910Z,43.60
2023-02-23T00:12:09.017Z,45.72
2023-02-23T00:14:37.816Z,43.55
2023-02-23T00:17:14.267Z,47.65
2023-02-23T00:19:43.657Z,44.40
2023-02-23T00:22:11.915Z,43.90
2023-02-23T00:24:40.782Z,44.50
2023-02-23T00:27:08.299Z,43.70
2023-02-23T00:29:39.651Z,52.58
2023-02-23T00:32:07.653Z,48.45
2023-02-23T00:34:36.694Z,50.63
2023-02-23T00:37:04.707Z,46.97
2023-02-23T00:39:32.168Z,54.20
2023-02-23T00:42:02.893Z,48.88
2023-02-23T00:44:32.142Z,51.28
2023-02-23T00:47:00.192Z,54.53
2023-02-23T00:49:27.901Z,48.65
2023-02-23T00:51:55.285Z,53.05
2023-02-23T00:54:22.765Z,54.08
2023-02-23T00:56:51.036Z,52.80
2023-02-23T00:59:19.206Z,52.72
2023-02-23T01:01:46.838Z,51.20
2023-02-23T01:04:14.417Z,53.20
2023-02-23T01:06:42.642Z,55.95
2023-02-23T01:09:16.794Z,56.50
2023-02-23T01:11:46.680Z,50.20
2023-02-23T01:14:15.359Z,49.60
2023-02-23T01:16:42.679Z,51.13
2023-02-23T01:19:10.507Z,53.05
2023-02-23T01:21:41.928Z,50.63
2023-02-23T01:24:09.688Z,48.28
2023-02-23T01:26:39.265Z,46.45
2023-02-23T01:29:18.501Z,46.15
2023-02-23T01:31:48.256Z,44.08
2023-02-23T01:34:19.773Z,53.90
2023-02-23T01:36:47.256Z,50.42
2023-02-23T01:39:18.629Z,49.33
2023-02-23T01:41:46.019Z,45.75
2023-02-23T01:44:15.295Z,50.22
2023-02-23T01:46:45.777Z,50.53
2023-02-23T01:49:28.943Z,52.35
2023-02-23T01:52:12.989Z,52.75
2023-02-23T01:54:50.313Z,57.40
2023-02-23T01:57:20.584Z,56.85
2023-02-23T01:59:51.054Z,56.33
2023-02-23T02:02:21.584Z,57.45
2023-02-23T02:04:52.088Z,60.67
2023-02-23T02:07:26.244Z,59.70
2023-02-23T02:10:11.971Z,57.08
2023-02-23T02:12:43.336Z,60.92
2023-02-23T02:15:17.616Z,60.60
2023-02-23T02:17:48.349Z,58.42
2023-02-23T02:20:33.881Z,57.58
2023-02-23T02:23:37.090Z,58.58
2023-02-23T02:26:15.934Z,60.10
2023-02-23T02:29:17.437Z,62.03
2023-02-23T02:32:09.916Z,63.78
2023-02-23T02:35:07.710Z,65.40
2023-02-23T02:38:05.475Z,61.78
2023-02-23T02:40:36.996Z,62.03
2023-02-23T02:43:13.083Z,64.38
2023-02-23T02:45:48.789Z,62.55
2023-02-23T02:48:37.071Z,57.63
2023-02-23T02:51:35.224Z,59.33
2023-02-23T02:54:30.425Z,58.63
2023-02-23T02:57:02.238Z,59.95
2023-02-23T02:59:48.698Z,59.10
2023-02-23T03:02:40.888Z,57.35
2023-02-23T03:05:44.026Z,61.67
2023-02-23T03:08:43.792Z,61.10
2023-02-23T03:11:32.374Z,65.30
2023-02-23T03:14:41.560Z,59.38
2023-02-23T03:17:54.189Z,58.63
2023-02-23T03:20:57.920Z,59.50
2023-02-23T03:23:51.965Z,58.78
2023-02-23T03:27:01.868Z,63.13
2023-02-23T03:30:01.459Z,65.97
2023-02-23T03:32:54.423Z,64.00
2023-02-23T03:35:45.502Z,58.67
2023-02-23T03:38:59.995Z,61.67
2023-02-23T03:41:47.565Z,61.85
2023-02-23T03:44:39.952Z,62.30
2023-02-23T03:47:27.653Z,61.63
2023-02-23T03:50:15.720Z,60.60
2023-02-23T03:53:07.550Z,61.45
2023-02-23T03:55:56.615Z,61.78
2023-02-23T03:58:49.844Z,63.00
2023-02-23T04:01:38.736Z,64.07
2023-02-23T04:04:26.851Z,60.22
2023-02-23T04:07:15.677Z,58.90
2023-02-23T04:10:01.804Z,60.53
2023-02-23T04:13:10.417Z,61.10
2023-02-23T04:15:41.403Z,60.13
2023-02-23T04:18:14.453Z,59.00
2023-02-23T04:20:41.857Z,58.35
2023-02-23T04:23:09.273Z,63.05
2023-02-23T04:25:36.634Z,61.47
2023-02-23T04:28:07.045Z,60.33
2023-02-23T04:30:34.423Z,59.28
2023-02-23T04:33:01.694Z,60.60
2023-02-23T04:35:31.304Z,59.28
2023-02-23T04:37:59.175Z,58.72
2023-02-23T04:40:27.620Z,59.80
2023-02-23T04:42:55.431Z,60.00
2023-02-23T04:45:23.928Z,61.22
2023-02-23T04:47:51.801Z,56.88
2023-02-23T04:50:20.328Z,55.85
2023-02-23T04:52:47.762Z,57.20
2023-02-23T04:55:21.443Z,59.63
2023-02-23T04:57:48.873Z,54.17
2023-02-23T05:00:17.619Z,60.67
2023-02-23T05:02:45.904Z,61.72
2023-02-23T05:05:13.243Z,56.42
2023-02-23T05:07:40.614Z,53.55
2023-02-23T05:10:08.755Z,55.97
2023-02-23T05:12:36.309Z,58.50
2023-02-23T05:15:04.049Z,52.42
2023-02-23T05:17:31.270Z,61.08
2023-02-23T05:19:58.517Z,61.95
2023-02-23T05:22:25.804Z,58.42
2023-02-23T05:24:57.504Z,53.45
2023-02-23T05:27:25.025Z,58.40
2023-02-23T05:29:52.270Z,58.13
2023-02-23T05:32:19.628Z,55.70
2023-02-23T05:34:46.874Z,61.08
2023-02-23T05:37:14.452Z,60.85
2023-02-23T05:39:41.668Z,55.00
2023-02-23T05:42:08.905Z,60.00
2023-02-23T05:44:36.821Z,58.33
2023-02-23T05:47:04.138Z,56.15
2023-02-23T05:49:31.409Z,55.72
2023-02-23T05:51:58.668Z,56.92
2023-02-23T05:54:26.441Z,56.55
2023-02-23T05:56:53.782Z,60.13
2023-02-23T05:59:21.030Z,65.13
2023-02-23T06:01:48.342Z,66.88
2023-02-23T06:04:17.244Z,69.90
2023-02-23T06:06:45.180Z,68.63
2023-02-23T06:09:12.530Z,68.63
2023-02-23T06:11:40.144Z,71.50
2023-02-23T06:14:07.384Z,76.10
2023-02-23T06:16:34.663Z,77.45
2023-02-23T06:19:02.369Z,79.38
2023-02-23T06:21:29.695Z,75.43
2023-02-23T06:24:00.575Z,84.22
2023-02-23T06:26:28.044Z,79.70
2023-02-23T06:28:55.565Z,79.38
2023-02-23T06:31:23.306Z,80.10
2023-02-23T06:33:50.913Z,86.85
2023-02-23T06:36:18.918Z,84.43
2023-02-23T06:38:46.678Z,84.78
2023-02-23T06:41:13.910Z,87.30
2023-02-23T06:43:41.314Z,87.53
2023-02-23T06:46:08.693Z,88.68
2023-02-23T06:48:36.197Z,94.65
2023-02-23T06:51:03.791Z,89.50
2023-02-23T06:53:31.267Z,97.10
2023-02-23T06:55:58.589Z,91.38
2023-02-23T06:58:26.285Z,96.18
2023-02-23T07:00:56.687Z,91.35
2023-02-23T07:03:25.225Z,88.50
2023-02-23T07:05:53.820Z,93.18
2023-02-23T07:08:21.086Z,98.30
2023-02-23T07:10:48.673Z,91.72
2023-02-23T07:13:16.407Z,89.93
2023-02-23T07:15:44.584Z,92.45
2023-02-23T07:18:11.944Z,93.60
2023-02-23T07:20:39.178Z,91.72
2023-02-23T07:23:06.522Z,93.90
2023-02-23T07:25:33.771Z,87.57
2023-02-23T07:28:01.137Z,87.38
2023-02-23T07:30:28.553Z,90.53
2023-02-23T07:32:55.878Z,100.03
2023-02-23T07:35:23.441Z,93.18
2023-02-23T07:37:50.771Z,86.88
2023-02-23T07:40:19.416Z,87.07
2023-02-23T07:42:46.865Z,89.05
2023-02-23T07:45:15.126Z,91.53
2023-02-23T07:47:42.333Z,87.68
2023-02-23T07:50:10.437Z,81.78
2023-02-23T07:52:39.314Z,97.28
2023-02-23T07:55:11.134Z,88.43
2023-02-23T07:57:39.471Z,84.97
2023-02-23T08:00:07.511Z,87.85
2023-02-23T08:02:40.507Z,85.20
2023-02-23T08:05:08.008Z,89.53
2023-02-23T08:07:35.309Z,91.53
2023-02-23T08:10:02.554Z,88.60
2023-02-23T08:12:31.550Z,79.72
2023-02-23T08:14:58.927Z,80.45
2023-02-23T08:17:26.350Z,83.65
2023-02-23T08:19:53.585Z,85.97
2023-02-23T08:22:21.485Z,82.75
2023-02-23T08:24:49.040Z,80.95
2023-02-23T08:27:16.264Z,86.28
2023-02-23T08:29:43.582Z,86.88
2023-02-23T08:32:11.029Z,79.55
2023-02-23T08:34:43.274Z,83.72
2023-02-23T08:37:11.478Z,81.18
2023-02-23T08:39:38.988Z,79.80
2023-02-23T08:42:06.703Z,78.97
2023-02-23T08:44:33.948Z,79.53
2023-02-23T08:47:03.472Z,78.35
2023-02-23T08:49:32.450Z,78.22
2023-02-23T08:51:59.714Z,74.35
2023-02-23T08:54:27.072Z,73.53
2023-02-23T08:56:58.040Z,81.88
2023-02-23T08:59:25.709Z,80.65
2023-02-23T09:01:53.151Z,70.75
2023-02-23T09:04:20.592Z,66.07
2023-02-23T09:06:49.411Z,65.50
2023-02-23T09:09:17.771Z,67.72
2023-02-23T09:11:45.146Z,64.40
2023-02-23T09:14:12.520Z,66.07
2023-02-23T09:16:40.055Z,60.90
2023-02-23T09:19:07.675Z,57.95
2023-02-23T09:21:35.020Z,57.65
2023-02-23T09:24:02.588Z,55.20
2023-02-23T09:26:31.663Z,56.15
2023-02-23T09:29:00.448Z,52.42
2023-02-23T09:31:28.122Z,46.20
2023-02-23T09:33:55.538Z,47.00
2023-02-23T09:36:25.409Z,50.85
2023-02-23T09:38:56.984Z,51.58
2023-02-23T09:41:49.096Z,49.63
2023-02-23T09:44:44.072Z,47.28
2023-02-23T09:47:22.804Z,52.40
2023-02-23T09:49:52.097Z,52.58
2023-02-23T09:52:36.838Z,53.22
2023-02-23T09:55:04.847Z,48.80
2023-02-23T09:57:39.020Z,48.38
2023-02-23T10:00:37.474Z,49.70
2023-02-23T10:03:31.864Z,45.63
2023-02-23T10:06:09.138Z,49.65
2023-02-23T10:09:11.751Z,47.33
2023-02-23T10:12:02.694Z,45.13
2023-02-23T10:14:57.248Z,47.33
2023-02-23T10:17:42.754Z,47.20
2023-02-23T10:20:45.187Z,48.35
2023-02-23T10:23:21.698Z,45.75
2023-02-23T10:25:51.985Z,47.15
2023-02-23T10:28:22.120Z,47.20
2023-02-23T10:30:52.739Z,45.67
2023-02-23T10:33:34.857Z,42.22
2023-02-23T10:36:19.592Z,42.22
2023-02-23T10:38:47.375Z,39.58
2023-02-23T10:41:15.121Z,42.00
2023-02-23T10:43:42.671Z,37.03
2023-02-23T10:46:21.225Z,39.63
2023-02-23T10:48:50.844Z,37.83
2023-02-23T10:51:22.049Z,37.00
2023-02-23T10:53:49.568Z,36.75
2023-02-23T10:56:22.892Z,39.28
2023-02-23T10:58:58.601Z,35.40
2023-02-23T11:02:00.351Z,36.13
2023-02-23T11:04:31.637Z,30.52
2023-02-23T11:07:24.416Z,31.15
2023-02-23T11:09:52.805Z,31.98
2023-02-23T11:12:26.384Z,31.27
2023-02-23T11:14:56.753Z,27.85
2023-02-23T11:17:33.988Z,29.17
2023-02-23T11:20:23.054Z,30.65
2023-02-23T11:22:52.218Z,28.50
2023-02-23T11:25:30.304Z,25.77
2023-02-23T11:27:58.759Z,25.20
2023-02-23T11:30:37.141Z,23.70
2023-02-23T11:33:11.118Z,22.92
2023-02-23T11:35:39.076Z,24.63
2023-02-23T11:38:35.701Z,28.13
2023-02-23T11:41:07.167Z,25.10
2023-02-23T11:43:36.075Z,23.95
2023-02-23T11:46:04.061Z,27.05
2023-02-23T11:48:42.858Z,26.98
2023-02-23T11:51:10.373Z,27.48
2023-02-23T11:53:44.736Z,28.98
2023-02-23T11:56:12.591Z,28.02
2023-02-23T11:58:44.249Z,30.85
2023-02-23T12:01:14.224Z,31.77
2023-02-23T12:03:57.500Z,29.67
2023-02-23T12:06:34.791Z,33.38
2023-02-23T12:09:20.792Z,29.10
2023-02-23T12:12:06.644Z,31.40
2023-02-23T12:14:37.527Z,28.42
2023-02-23T12:17:17.458Z,29.60
2023-02-23T12:19:49.209Z,27.25
2023-02-23T12:22:38.416Z,28.38
2023-02-23T12:25:18.666Z,29.52
2023-02-23T12:27:53.866Z,28.27
2023-02-23T12:30:56.350Z,26.45
2023-02-23T12:33:40.040Z,27.70
2023-02-23T12:36:16.230Z,26.77
2023-02-23T12:39:11.458Z,29.17
2023-02-23T12:41:43.600Z,28.50
2023-02-23T12:44:48.558Z,26.25
2023-02-23T12:47:36.133Z,25.40
2023-02-23T12:50:26.465Z,27.35
2023-02-23T12:53:01.465Z,27.63
2023-02-23T12:55:40.797Z,29.92
2023-02-23T12:58:55.327Z,27.33
2023-02-23T13:02:01.010Z,28.25
2023-02-23T13:04:52.731Z,30.83
2023-02-23T13:07:35.063Z,32.30
2023-02-23T13:10:34.792Z,26.23
2023-02-23T13:13:31.981Z,28.42
2023-02-23T13:16:01.746Z,27.80
2023-02-23T13:18:51.290Z,25.45
2023-02-23T13:21:42.275Z,28.15
2023-02-23T13:24:19.384Z,27.08
2023-02-23T13:27:05.546Z,28.67
2023-02-23T13:29:50.724Z,29.17
2023-02-23T13:32:21.370Z,28.50
2023-02-23T13:35:00.650Z,29.02
2023-02-23T13:37:43.156Z,29.00
2023-02-23T13:40:32.778Z,26.85
2023-02-23T13:43:30.111Z,27.65
2023-02-23T13:46:21.669Z,27.30
2023-02-23T13:49:04.664Z,25.58
2023-02-23T13:51:35.255Z,29.05
2023-02-23T13:54:23.116Z,29.75
2023-02-23T13:56:58.898Z,28.10
2023-02-23T13:59:30.429Z,24.70
2023-02-23T14:02:02.164Z,24.33
2023-02-23T14:04:36.142Z,28.35
2023-02-23T14:07:09.617Z,26.58
2023-02-23T14:09:53.489Z,26.10
2023-02-23T14:12:41.948Z,36.58
2023-02-23T14:15:38.808Z,28.23
2023-02-23T14:18:21.427Z,27.98
2023-02-23T14:20:56.164Z,25.92
2023-02-23T14:26:32.145Z,29.25
2023-02-23T14:29:25.547Z,26.58
2023-02-23T14:32:24.373Z,26.75
2023-02-23T14:34:52.909Z,34.28
2023-02-23T14:37:40.180Z,29.08
2023-02-23T14:40:12.677Z,27.05
2023-02-23T14:42:40.693Z,27.88
2023-02-23T14:45:28.680Z,27.80
2023-02-23T14:48:18.288Z,26.67
2023-02-23T14:50:45.672Z,29.52
2023-02-23T14:53:22.699Z,26.60
2023-02-23T14:55:50.203Z,25.52
2023-02-23T14:58:33.361Z,28.25
2023-02-23T15:01:01.113Z,25.77
2023-02-23T15:03:28.599Z,27.92
2023-02-23T15:06:05.862Z,25.65
2023-02-23T15:08:40.355Z,26.38
2023-02-23T15:11:12.189Z,25.88
2023-02-23T15:13:50.264Z,26.40
2023-02-23T15:16:37.853Z,26.58
2023-02-23T15:19:05.694Z,27.27
2023-02-23T15:21:35.748Z,25.92
2023-02-23T15:24:16.664Z,24.08
2023-02-23T15:26:43.992Z,26.52
2023-02-23T15:29:13.470Z,24.58
2023-02-23T15:31:50.243Z,29.20
2023-02-23T15:34:24.225Z,23.30
2023-02-23T15:36:59.724Z,23.20
2023-02-23T15:39:44.966Z,21.73
2023-02-23T15:42:17.370Z,18.98
2023-02-23T15:44:45.611Z,23.95
2023-02-23T15:47:28.704Z,19.10
2023-02-23T15:50:36.470Z,19.33
2023-02-23T15:53:15.300Z,20.40
2023-02-23T15:55:44.168Z,19.30
2023-02-23T15:58:25.413Z,20.55
2023-02-23T16:01:15.887Z,19.42
2023-02-23T16:03:54.588Z,21.05
2023-02-23T16:06:38.672Z,19.75
2023-02-23T16:09:27.244Z,22.65
2023-02-23T16:12:00.266Z,17.33
2023-02-23T16:14:35.495Z,19.52
2023-02-23T16:17:10.979Z,22.50
2023-02-23T16:19:41.210Z,18.52
2023-02-23T16:22:20.327Z,20.27
2023-02-23T16:24:56.266Z,19.13
2023-02-23T16:27:25.959Z,20.23
2023-02-23T16:30:00.246Z,22.98
2023-02-23T16:32:41.258Z,19.35
2023-02-23T16:35:19.026Z,21.60
2023-02-23T16:38:22.698Z,18.95
2023-02-23T16:40:50.072Z,18.67
2023-02-23T16:43:17.412Z,19.40
2023-02-23T16:45:44.989Z,19.17
2023-02-23T16:48:14.579Z,21.20
2023-02-23T16:50:42.862Z,20.60
2023-02-23T16:53:12.104Z,19.33
2023-02-23T16:55:45.467Z,19.05
2023-02-23T16:58:18.607Z,18.08
2023-02-23T17:00:46.020Z,19.85
2023-02-23T17:03:36.015Z,21.42
2023-02-23T17:06:05.789Z,19.63
2023-02-23T17:08:35.134Z,18.40
2023-02-23T17:11:04.334Z,19.58
2023-02-23T17:13:35.369Z,22.13
2023-02-23T17:16:06.886Z,21.35
2023-02-23T17:18:36.851Z,18.70
2023-02-23T17:21:10.043Z,19.40
2023-02-23T17:23:48.098Z,20.50
2023-02-23T17:26:17.081Z,18.85
2023-02-23T17:28:45.201Z,18.15
2023-02-23T17:31:14.085Z,19.10
2023-02-23T17:33:42.643Z,19.00
2023-02-23T17:36:15.453Z,14.75
2023-02-23T17:38:44.793Z,16.50
2023-02-23T17:41:17.358Z,15.25
2023-02-23T17:43:45.317Z,16.15
2023-02-23T17:46:13.464Z,13.88
2023-02-23T17:48:44.356Z,14.05
2023-02-23T17:51:13.051Z,14.02
2023-02-23T17:53:40.820Z,13.93
2023-02-23T17:56:09.035Z,11.23
2023-02-23T17:58:37.254Z,10.70
2023-02-23T18:01:06.724Z,15.40
2023-02-23T18:03:36.106Z,13.05
2023-02-23T18:06:06.042Z,13.02
2023-02-23T18:08:33.743Z,14.23
2023-02-23T18:11:01.239Z,13.00
2023-02-23T18:13:29.665Z,13.80
2023-02-23T18:16:08.117Z,13.18
2023-02-23T18:18:41.177Z,14.52
2023-02-23T18:21:18.952Z,15.73
2023-02-23T18:23:46.527Z,12.70
2023-02-23T18:26:19.662Z,16.98
2023-02-23T18:28:47.375Z,15.05
2023-02-23T18:31:17.559Z,13.82
2023-02-23T18:33:46.183Z,12.35
2023-02-23T18:37:37.101Z,16.55
2023-02-23T18:40:05.472Z,15.55
2023-02-23T18:42:32.803Z,12.00
2023-02-23T18:45:00.097Z,12.02
2023-02-23T18:47:28.614Z,15.35
2023-02-23T18:49:56.583Z,13.35
2023-02-23T18:52:26.164Z,13.68
2023-02-23T18:54:53.486Z,15.10
2023-02-23T18:57:20.804Z,14.52
2023-02-23T18:59:48.064Z,11.85
2023-02-23T19:02:15.352Z,13.43
2023-02-23T19:04:43.507Z,13.98
2023-02-23T19:07:10.797Z,12.55
2023-02-23T19:09:40.854Z,14.07
2023-02-23T19:12:08.202Z,14.32
2023-02-23T19:14:48.714Z,13.75
2023-02-23T19:17:16.799Z,12.73
2023-02-23T19:19:44.059Z,14.65
2023-02-23T19:22:11.408Z,13.07
2023-02-23T19:24:38.694Z,15.80
2023-02-23T19:27:06.093Z,12.40
2023-02-23T19:29:33.453Z,13.65
2023-02-23T19:32:00.995Z,12.63
2023-02-23T19:34:28.435Z,15.50
2023-02-23T19:36:55.691Z,14.20
2023-02-23T19:39:22.973Z,13.70
2023-02-23T19:41:50.204Z,13.50
2023-02-23T19:44:17.603Z,16.05
2023-02-23T19:46:44.902Z,15.90
2023-02-23T19:49:12.887Z,14.90
2023-02-23T19:51:40.121Z,16.33
2023-02-23T19:54:07.659Z,12.45
2023-02-23T19:56:35.095Z,15.68
2023-02-23T19:59:03.767Z,13.57
2023-02-23T20:01:31.518Z,15.57
2023-02-23T20:04:04.363Z,14.35
2023-02-23T20:06:35.021Z,14.52
2023-02-23T20:09:04.578Z,14.98
2023-02-23T20:11:32.981Z,14.88
2023-02-23T20:14:00.851Z,13.00
2023-02-23T20:16:29.636Z,12.35
2023-02-23T20:18:57.896Z,13.68
2023-02-23T20:21:26.847Z,12.88
2023-02-23T20:23:55.836Z,14.05
2023-02-23T20:26:30.762Z,16.63
2023-02-23T20:28:58.537Z,14.65
2023-02-23T20:31:30.130Z,12.82
2023-02-23T20:34:00.724Z,10.05
2023-02-23T20:36:28.125Z,7.53
2023-02-23T20:38:57.472Z,8.85
2023-02-23T20:41:27.861Z,8.43
2023-02-23T20:43:56.482Z,10.00
2023-02-23T20:46:23.874Z,7.07
2023-02-23T20:48:51.160Z,5.95
2023-02-23T20:51:19.273Z,7.38
2023-02-23T20:53:47.999Z,8.25
2023-02-23T20:56:17.424Z,6.93
2023-02-23T20:58:45.948Z,7.40
2023-02-23T21:01:15.696Z,8.95
2023-02-23T21:03:43.009Z,7.47
2023-02-23T21:06:10.417Z,8.73
2023-02-23T21:08:37.711Z,8.07
2023-02-23T21:11:06.111Z,9.10
2023-02-23T21:13:34.061Z,8.70
2023-02-23T21:16:02.942Z,12.32
2023-02-23T21:18:31.319Z,11.00
2023-02-23T21:21:09.596Z,10.90
2023-02-23T21:23:44.760Z,10.65
2023-02-23T21:26:16.028Z,11.02
2023-02-23T21:28:44.956Z,10.05
2023-02-23T21:31:13.664Z,13.55
2023-02-23T21:33:43.128Z,10.23
2023-02-23T21:36:12.348Z,10.32
2023-02-23T21:38:41.823Z,12.63
2023-02-23T21:41:10.688Z,11.98
2023-02-23T21:43:39.982Z,13.52
2023-02-23T21:46:09.409Z,20.23
2023-02-23T21:48:36.997Z,15.43
2023-02-23T21:51:11.369Z,17.70
2023-02-23T21:53:39.350Z,15.75
2023-02-23T21:56:22.267Z,21.00
2023-02-23T21:58:52.439Z,19.27
2023-02-23T22:01:24.167Z,18.65
2023-02-23T22:03:54.681Z,16.48
2023-02-23T22:06:25.194Z,17.25
2023-02-23T22:08:52.600Z,20.27
2023-02-23T22:11:24.676Z,19.63
2023-02-23T22:13:59.370Z,18.20
2023-02-23T22:16:30.541Z,21.65
2023-02-23T22:18:58.490Z,24.90
2023-02-23T22:21:25.869Z,25.42
2023-02-23T22:23:54.063Z,22.17
2023-02-23T22:26:21.298Z,19.70
2023-02-23T22:28:48.547Z,17.55
2023-02-23T22:31:15.977Z,17.20
2023-02-23T22:33:44.143Z,19.52
2023-02-23T22:36:14.567Z,20.50
2023-02-23T22:38:42.035Z,16.25
2023-02-23T22:41:13.666Z,19.83
2023-02-23T22:43:45.649Z,20.45
2023-02-23T22:46:14.579Z,14.43
2023-02-23T22:48:45.621Z,20.05
2023-02-23T22:51:14.918Z,19.55
2023-02-23T22:53:43.316Z,18.05
2023-02-23T22:56:11.236Z,20.52
2023-02-23T22:58:40.327Z,22.35
2023-02-23T23:01:11.021Z,13.73
2023-02-23T23:03:47.586Z,21.33
2023-02-23T23:06:17.821Z,18.02
2023-02-23T23:08:45.813Z,20.08
2023-02-23T23:11:16.196Z,20.17
2023-02-23T23:13:45.995Z,14.13
2023-02-23T23:16:30.958Z,19.65
2023-02-23T23:19:11.991Z,16.90
2023-02-23T23:21:44.224Z,21.55
2023-02-23T23:24:15.916Z,19.33
2023-02-23T23:26:44.196Z,15.35
2023-02-23T23:29:14.575Z,20.02
2023-02-23T23:31:45.415Z,30.90
2023-02-23T23:34:16.383Z,19.20
2023-02-23T23:36:48.701Z,15.90
2023-02-23T23:39:18.321Z,18.52
2023-02-23T23:41:48.193Z,19.88
2023-02-23T23:44:17.717Z,18.05
2023-02-23T23:46:46.375Z,16.90
2023-02-23T23:49:27.381Z,24.67
2023-02-23T23:51:56.792Z,18.35
2023-02-23T23:54:29.250Z,18.52
2023-02-23T23:56:58.486Z,20.05
2023-02-23T23:59:26.735Z,21.20
